Time;durP1;ratioP1;P1;durP2;ratioP2;P2;SDS_P1;SDS_P2;PMS_P1;PMS_P2;Temp;Humidity;BMP_temperature;BMP_pressure;BME280_temperature;BME280_humidity;BME280_pressure;Samples;Min_cycle;Max_cycle;Signal;HPM_P1;HPM_P2
2021/06/02 00:01:20;;;;;;;4.68;2.30;;;16.10;59.00;;;;;;6248947;28;20065;-74
2021/06/02 00:04:23;;;;;;;4.13;2.53;;;15.90;59.80;;;;;;6249210;28;20080;-75
2021/06/02 00:07:26;;;;;;;2.67;2.40;;;15.80;60.30;;;;;;6249590;28;20064;-74
2021/06/02 00:10:27;;;;;;;3.67;2.92;;;15.60;60.50;;;;;;6249597;28;20049;-74
2021/06/02 00:13:30;;;;;;;4.35;3.47;;;15.50;61.70;;;;;;6249231;28;20050;-75
2021/06/02 00:16:31;;;;;;;4.57;3.20;;;15.40;62.30;;;;;;6249012;28;20073;-74
2021/06/02 00:19:33;;;;;;;6.00;3.53;;;15.20;63.00;;;;;;6248627;28;20071;-75
2021/06/02 00:22:35;;;;;;;3.85;3.45;;;15.10;62.30;;;;;;6249683;28;20060;-75
2021/06/02 00:25:36;;;;;;;5.03;4.13;;;15.00;62.80;;;;;;6248039;28;20065;-74
2021/06/02 00:28:40;;;;;;;4.70;3.45;;;14.90;63.00;;;;;;6249047;28;20049;-73
2021/06/02 00:31:46;;;;;;;6.07;3.33;;;14.80;63.90;;;;;;6249322;28;20127;-73
2021/06/02 00:34:48;;;;;;;4.43;3.55;;;14.70;64.50;;;;;;6249654;28;20075;-74
2021/06/02 00:37:50;;;;;;;3.95;3.05;;;14.50;64.80;;;;;;6248912;28;20049;-74
2021/06/02 00:40:52;;;;;;;3.33;2.83;;;14.40;65.70;;;;;;6248098;28;20132;-74
2021/06/02 00:43:56;;;;;;;3.90;3.50;;;14.40;66.60;;;;;;6248209;28;20053;-74
2021/06/02 00:46:58;;;;;;;4.28;3.15;;;14.30;67.00;;;;;;6247753;28;20582;-74
2021/06/02 00:50:01;;;;;;;6.78;3.30;;;14.10;67.90;;;;;;6247441;28;20104;-75
2021/06/02 00:53:03;;;;;;;3.47;3.17;;;14.00;68.30;;;;;;6250983;28;20128;-74
2021/06/02 00:56:06;;;;;;;4.90;3.53;;;13.90;69.10;;;;;;6272492;28;20568;-75
2021/06/02 00:59:10;;;;;;;7.07;3.75;;;13.70;69.90;;;;;;6272402;28;20132;-74
2021/06/02 01:02:15;;;;;;;3.92;3.03;;;13.50;70.50;;;;;;6273165;28;20057;-75
2021/06/02 01:05:18;;;;;;;3.97;3.58;;;13.40;71.20;;;;;;6272151;28;20079;-74
2021/06/02 01:08:22;;;;;;;3.70;3.33;;;13.30;71.50;;;;;;6272206;28;20404;-74
2021/06/02 01:11:25;;;;;;;3.83;3.53;;;13.30;71.50;;;;;;6271801;28;20495;-74
2021/06/02 01:14:29;;;;;;;5.63;3.72;;;13.20;72.00;;;;;;6272709;28;20128;-74
2021/06/02 01:17:33;;;;;;;3.70;2.95;;;13.10;72.70;;;;;;6271961;28;20510;-74
2021/06/02 01:20:37;;;;;;;4.15;3.67;;;13.10;73.10;;;;;;6271581;28;20069;-74
2021/06/02 01:23:42;;;;;;;6.18;3.80;;;13.10;73.30;;;;;;6271900;28;20071;-74
2021/06/02 01:26:44;;;;;;;3.55;3.05;;;12.90;73.90;;;;;;6272351;28;20094;-74
2021/06/02 01:29:48;;;;;;;4.20;3.83;;;12.70;75.00;;;;;;6271746;28;20562;-74
2021/06/02 01:33:15;;;;;;;5.43;4.00;;;12.60;75.10;;;;;;6271496;28;20131;-74
2021/06/02 01:36:30;;;;;;;4.47;3.95;;;12.50;74.70;;;;;;6271732;28;20045;-74
2021/06/02 01:39:47;;;;;;;4.05;3.65;;;12.30;75.10;;;;;;6271647;28;20041;-74
2021/06/02 01:43:00;;;;;;;4.38;4.00;;;12.30;75.50;;;;;;6271760;28;20388;-74
2021/06/02 01:46:22;;;;;;;5.47;3.60;;;12.30;75.60;;;;;;6272149;28;20120;-74
2021/06/02 01:49:47;;;;;;;3.28;2.97;;;12.20;75.60;;;;;;6271068;28;20049;-74
2021/06/02 01:53:35;;;;;;;4.40;3.65;;;12.20;75.80;;;;;;6271547;28;20068;-74
2021/06/02 01:57:17;;;;;;;4.18;3.75;;;12.20;76.40;;;;;;6271330;28;20110;-75
2021/06/02 02:00:43;;;;;;;6.35;3.95;;;12.20;76.10;;;;;;6270838;28;20132;-74
2021/06/02 02:04:24;;;;;;;3.22;2.92;;;12.10;75.80;;;;;;6271089;28;20041;-74
2021/06/02 02:07:44;;;;;;;5.85;3.85;;;12.10;75.70;;;;;;6250152;28;20069;-73
2021/06/02 02:10:49;;;;;;;4.35;3.95;;;12.00;75.70;;;;;;6271574;28;20128;-74
2021/06/02 02:14:26;;;;;;;4.07;3.67;;;11.90;76.30;;;;;;6271265;28;20235;-74
2021/06/02 02:18:07;;;;;;;4.57;4.18;;;11.90;77.60;;;;;;6268431;28;20047;-74
2021/06/02 02:21:16;;;;;;;5.57;4.45;;;11.90;77.90;;;;;;6270652;28;20128;-75
2021/06/02 02:24:32;;;;;;;4.30;3.78;;;11.80;78.30;;;;;;6270832;28;20044;-75
2021/06/02 02:27:43;;;;;;;3.95;3.63;;;11.70;79.10;;;;;;6270995;28;20122;-76
2021/06/02 02:30:50;;;;;;;9.05;6.70;;;11.70;79.10;;;;;;6270899;28;20727;-75
2021/06/02 02:33:59;;;;;;;4.30;3.70;;;11.50;79.20;;;;;;6270868;28;20075;-75
2021/06/02 02:37:05;;;;;;;3.60;3.30;;;11.50;79.70;;;;;;6270908;28;20051;-76
2021/06/02 02:40:13;;;;;;;6.13;4.03;;;11.40;79.60;;;;;;6270630;28;20072;-76
2021/06/02 02:43:28;;;;;;;4.33;3.93;;;11.40;80.20;;;;;;6270987;28;20519;-76
2021/06/02 02:46:36;;;;;;;4.45;4.05;;;11.40;80.80;;;;;;6271334;28;20179;-76
2021/06/02 02:49:47;;;;;;;4.88;3.85;;;11.30;81.20;;;;;;6270408;28;20044;-76
2021/06/02 02:53:05;;;;;;;5.47;4.80;;;11.20;81.20;;;;;;6270936;28;20171;-76
2021/06/02 02:56:15;;;;;;;5.43;4.87;;;11.30;82.50;;;;;;6271182;28;20045;-76
2021/06/02 02:59:23;;;;;;;9.43;4.20;;;11.30;83.70;;;;;;6270758;28;20194;-77
2021/06/02 03:02:28;;;;;;;;;;;11.10;82.30;;;;;;6271701;28;20134;-77
2021/06/02 03:05:32;;;;;;;6.63;3.90;;;11.20;84.80;;;;;;6271019;28;20305;-76
2021/06/02 03:08:40;;;;;;;5.57;4.63;;;10.90;83.30;;;;;;6270406;28;20124;-76
2021/06/02 03:11:48;;;;;;;4.18;3.88;;;10.90;83.20;;;;;;6272893;28;20068;-76
2021/06/02 03:14:56;;;;;;;4.70;3.65;;;10.80;82.90;;;;;;6275864;28;20131;-76
2021/06/02 03:18:06;;;;;;;7.10;4.07;;;10.70;83.30;;;;;;6275530;28;20048;-77
2021/06/02 03:21:47;;;;;;;4.65;4.20;;;10.70;83.90;;;;;;6274791;28;20049;-76
2021/06/02 03:25:03;;;;;;;5.25;4.15;;;10.70;84.20;;;;;;6275776;28;20180;-76
2021/06/02 03:28:12;;;;;;;7.28;4.32;;;10.60;84.70;;;;;;6275041;28;20048;-77
2021/06/02 03:31:24;;;;;;;6.28;4.53;;;10.60;85.30;;;;;;6274625;28;20049;-76
2021/06/02 03:34:27;;;;;;;4.82;4.40;;;10.60;85.80;;;;;;6275158;28;20076;-77
2021/06/02 03:37:45;;;;;;;9.18;4.70;;;10.60;85.90;;;;;;6275573;28;20129;-77
2021/06/02 03:40:58;;;;;;;4.50;3.83;;;10.60;86.00;;;;;;6274639;28;20077;-77
2021/06/02 03:44:14;;;;;;;4.63;4.20;;;10.60;86.20;;;;;;6248202;28;20060;-76
2021/06/02 03:47:23;;;;;;;4.20;3.80;;;10.50;86.50;;;;;;6249829;28;20120;-76
2021/06/02 03:50:25;;;;;;;;;;;10.50;87.30;;;;;;6250540;28;20084;-76
2021/06/02 03:53:51;;;;;;;5.20;4.70;;;10.40;86.90;;;;;;6250789;28;20008;-76
2021/06/02 03:57:18;;;;;;;5.13;4.63;;;10.40;87.30;;;;;;6248962;28;20072;-76
2021/06/02 04:00:23;;;;;;;5.32;4.70;;;10.50;87.40;;;;;;6249243;28;20533;-76
2021/06/02 04:03:26;;;;;;;5.80;4.45;;;10.40;87.50;;;;;;6249239;28;20103;-77
2021/06/02 04:06:37;;;;;;;5.97;4.68;;;10.40;87.50;;;;;;6249786;28;20042;-76
2021/06/02 04:09:43;;;;;;;9.02;4.95;;;10.50;87.70;;;;;;6248919;28;20731;-76
2021/06/02 04:12:53;;;;;;;7.18;5.13;;;10.50;87.60;;;;;;6248900;28;20057;-76
2021/06/02 04:16:08;;;;;;;6.50;4.95;;;10.60;87.60;;;;;;6249216;28;20049;-77
2021/06/02 04:19:14;;;;;;;4.78;4.28;;;10.70;87.60;;;;;;6249831;28;20518;-76
2021/06/02 04:22:18;;;;;;;5.55;5.05;;;10.70;87.60;;;;;;6253042;28;20155;-77
2021/06/02 04:25:21;;;;;;;6.38;4.50;;;10.80;87.30;;;;;;6257367;28;20045;-77
2021/06/02 04:28:24;;;;;;;6.95;5.82;;;11.00;87.40;;;;;;6253569;28;20133;-77
2021/06/02 04:31:28;;;;;;;7.90;5.43;;;11.10;87.00;;;;;;6248776;28;20120;-76
2021/06/02 04:34:30;;;;;;;4.78;4.25;;;11.20;86.50;;;;;;6248880;28;20057;-76
2021/06/02 04:37:33;;;;;;;6.68;4.40;;;11.40;86.40;;;;;;6250256;28;20205;-76
2021/06/02 04:40:39;;;;;;;6.60;4.13;;;11.60;86.00;;;;;;6248142;28;20051;-77
2021/06/02 04:43:42;;;;;;;7.88;5.47;;;11.90;85.60;;;;;;6255592;28;20049;-78
2021/06/02 04:46:46;;;;;;;12.88;6.13;;;12.00;85.30;;;;;;6273436;28;20056;-77
2021/06/02 04:49:58;;;;;;;6.20;5.60;;;12.20;85.10;;;;;;6274717;28;20049;-76
2021/06/02 04:53:39;;;;;;;8.57;4.53;;;12.40;84.60;;;;;;6274781;28;20120;-76
2021/06/02 04:57:17;;;;;;;3.10;2.85;;;12.70;82.80;;;;;;6272920;28;20561;-77
2021/06/02 05:01:16;;;;;;;4.28;3.42;;;13.00;79.60;;;;;;6272585;28;20051;-77
2021/06/02 05:04:49;;;;;;;4.00;3.70;;;13.30;77.50;;;;;;6195681;28;20190;-77
2021/06/02 05:08:23;;;;;;;9.95;4.40;;;13.70;77.40;;;;;;6203517;28;20129;-76
2021/06/02 05:12:00;;;;;;;4.30;3.90;;;14.00;77.60;;;;;;6271622;28;20124;-77
2021/06/02 05:15:35;;;;;;;4.53;3.25;;;14.30;76.20;;;;;;6271726;28;20045;-77
2021/06/02 05:19:03;;;;;;;5.13;3.28;;;14.60;75.40;;;;;;6268700;28;20045;-77
2021/06/02 05:22:13;;;;;;;4.13;3.13;;;15.00;73.70;;;;;;6271850;28;20071;-76
2021/06/02 05:26:09;;;;;;;4.75;3.20;;;15.40;71.60;;;;;;6271861;28;20041;-76
2021/06/02 05:29:55;;;;;;;3.55;2.90;;;15.70;70.30;;;;;;6271066;28;20567;-77
2021/06/02 05:33:32;;;;;;;5.20;3.90;;;15.80;69.10;;;;;;6271332;28;20647;-76
2021/06/02 05:36:47;;;;;;;8.35;4.20;;;15.90;68.40;;;;;;6271584;28;20136;-76
2021/06/02 05:40:14;;;;;;;5.18;3.67;;;16.20;68.10;;;;;;6270835;28;20418;-76
2021/06/02 05:44:05;;;;;;;3.85;3.30;;;16.40;67.70;;;;;;6271322;28;20470;-76
2021/06/02 05:47:38;;;;;;;7.20;3.88;;;16.50;67.40;;;;;;6269659;28;20124;-76
2021/06/02 05:51:02;;;;;;;4.72;3.58;;;16.90;66.20;;;;;;6250301;28;20503;-77
2021/06/02 05:54:33;;;;;;;3.67;3.33;;;17.10;64.30;;;;;;6250244;28;20052;-77
2021/06/02 05:58:29;;;;;;;3.63;3.28;;;17.30;63.20;;;;;;6270955;28;20227;-76
2021/06/02 06:02:01;;;;;;;3.00;2.78;;;17.80;62.30;;;;;;6270402;28;20128;-76
2021/06/02 06:05:14;;;;;;;6.35;2.88;;;19.00;60.20;;;;;;6256592;28;20131;-77
2021/06/02 06:08:43;;;;;;;10.38;3.10;;;20.20;56.10;;;;;;6262221;28;20529;-76
2021/06/02 06:12:22;;;;;;;2.90;2.38;;;21.50;51.80;;;;;;6237047;28;20076;-76
2021/06/02 06:16:11;;;;;;;5.13;2.63;;;21.80;50.50;;;;;;6268417;28;20182;-77
2021/06/02 06:19:53;;;;;;;4.78;2.95;;;22.40;48.40;;;;;;6243856;28;20048;-77
2021/06/02 06:23:14;;;;;;;4.43;2.67;;;22.90;48.20;;;;;;6271373;28;20102;-76
2021/06/02 06:26:21;;;;;;;3.45;2.65;;;23.10;46.70;;;;;;6271201;28;20502;-76
2021/06/02 06:29:31;;;;;;;5.72;2.33;;;23.20;45.80;;;;;;6270765;28;20055;-77
2021/06/02 06:32:35;;;;;;;4.97;3.10;;;23.50;45.40;;;;;;6270659;28;20106;-77
2021/06/02 06:35:38;;;;;;;4.75;2.67;;;23.60;45.10;;;;;;6270835;28;20094;-77
2021/06/02 06:38:54;;;;;;;3.83;3.50;;;23.70;44.60;;;;;;6270328;28;20060;-77
2021/06/02 06:41:56;;;;;;;3.47;3.17;;;23.80;44.50;;;;;;6270391;28;20055;-74
2021/06/02 06:45:04;;;;;;;5.60;2.35;;;24.00;44.00;;;;;;6268470;28;20071;-77
2021/06/02 06:48:12;;;;;;;2.58;1.85;;;24.20;43.30;;;;;;6248504;28;20127;-77
2021/06/02 06:51:15;;;;;;;4.88;3.92;;;24.30;43.40;;;;;;6250181;28;20133;-77
2021/06/02 06:54:17;;;;;;;3.65;2.97;;;23.90;44.00;;;;;;6250870;28;20135;-77
2021/06/02 06:57:19;;;;;;;3.00;2.65;;;23.70;45.00;;;;;;6250326;28;20075;-77
2021/06/02 07:00:24;;;;;;;7.10;3.05;;;23.50;45.60;;;;;;6250080;28;20528;-76
2021/06/02 07:03:26;;;;;;;6.95;3.10;;;23.40;45.70;;;;;;6250323;28;20041;-76
2021/06/02 07:06:29;;;;;;;13.27;3.17;;;23.30;45.70;;;;;;6250964;28;20107;-77
2021/06/02 07:09:31;;;;;;;6.50;2.65;;;23.30;45.60;;;;;;6250214;28;20507;-76
2021/06/02 07:12:33;;;;;;;3.40;2.80;;;23.30;45.80;;;;;;6250870;28;20049;-77
2021/06/02 07:15:36;;;;;;;4.82;2.20;;;23.40;45.20;;;;;;6274839;28;20065;-76
2021/06/02 07:18:41;;;;;;;2.25;2.05;;;23.50;44.80;;;;;;6274970;28;20136;-76
2021/06/02 07:21:45;;;;;;;3.13;2.40;;;23.60;43.40;;;;;;6274620;28;20075;-74
2021/06/02 07:24:47;;;;;;;3.05;2.25;;;23.90;44.30;;;;;;6274363;28;20474;-76
2021/06/02 07:27:49;;;;;;;2.40;2.20;;;24.10;42.80;;;;;;6274717;28;20045;-77
2021/06/02 07:30:52;;;;;;;7.28;3.40;;;24.30;42.80;;;;;;6274494;28;20136;-77
2021/06/02 07:33:53;;;;;;;2.85;2.60;;;24.30;43.10;;;;;;6274583;28;20052;-76
2021/06/02 07:36:54;;;;;;;2.78;2.50;;;24.50;42.30;;;;;;6275098;28;20068;-76
2021/06/02 07:39:56;;;;;;;5.88;2.45;;;24.70;42.40;;;;;;6274347;28;20506;-76
2021/06/02 07:42:57;;;;;;;3.53;2.35;;;24.90;41.20;;;;;;6274543;28;20144;-76
2021/06/02 07:46:00;;;;;;;2.97;1.90;;;25.10;41.60;;;;;;6275092;28;20080;-76
2021/06/02 07:49:02;;;;;;;4.25;2.20;;;25.30;40.60;;;;;;6270249;28;20128;-77
2021/06/02 07:52:03;;;;;;;5.43;2.15;;;25.70;40.60;;;;;;6275124;28;20124;-76
2021/06/02 07:55:05;;;;;;;3.63;2.63;;;25.80;40.20;;;;;;6283156;28;20045;-77
2021/06/02 07:58:07;;;;;;;2.45;2.22;;;26.00;40.00;;;;;;6298049;28;20063;-76
2021/06/02 08:01:10;;;;;;;5.63;3.50;;;26.30;39.70;;;;;;6305801;28;20047;-76
2021/06/02 08:04:11;;;;;;;6.28;3.75;;;26.50;38.90;;;;;;6306105;28;20041;-76
2021/06/02 08:07:13;;;;;;;8.43;3.25;;;27.00;38.50;;;;;;6306289;28;20033;-75
2021/06/02 08:10:16;;;;;;;4.85;3.22;;;27.10;39.00;;;;;;6306448;28;20057;-76
2021/06/02 08:13:18;;;;;;;8.02;2.92;;;27.40;39.10;;;;;;6305377;28;20033;-76
2021/06/02 08:16:20;;;;;;;3.90;2.45;;;27.60;38.60;;;;;;6304824;28;20045;-76
2021/06/02 08:19:22;;;;;;;3.88;2.10;;;27.80;37.90;;;;;;6300560;28;20049;-76
2021/06/02 08:22:23;;;;;;;5.57;2.70;;;28.10;37.30;;;;;;6274916;28;20131;-76
2021/06/02 08:25:24;;;;;;;4.20;2.80;;;28.50;37.30;;;;;;6273808;28;20095;-75
2021/06/02 08:28:26;;;;;;;4.72;2.85;;;29.00;36.10;;;;;;6273400;28;20049;-76
2021/06/02 08:31:28;;;;;;;4.35;3.17;;;29.60;35.10;;;;;;6273072;28;20175;-76
2021/06/02 08:34:30;;;;;;;11.88;3.38;;;30.00;33.90;;;;;;6273469;28;20142;-76
2021/06/02 08:37:31;;;;;;;4.13;2.10;;;30.90;35.70;;;;;;6272805;28;20568;-76
2021/06/02 08:40:33;;;;;;;4.55;2.50;;;31.50;32.60;;;;;;6272688;28;20045;-76
2021/06/02 08:43:35;;;;;;;4.80;2.85;;;31.90;31.60;;;;;;6272786;28;20526;-76
2021/06/02 08:46:38;;;;;;;5.95;2.53;;;32.00;31.50;;;;;;6274801;28;20045;-76
2021/06/02 08:49:39;;;;;;;2.95;2.53;;;32.50;31.20;;;;;;6248300;28;20463;-76
2021/06/02 08:52:43;;;;;;;6.20;2.03;;;32.90;30.50;;;;;;6248841;28;20073;-76
2021/06/02 08:55:45;;;;;;;8.68;2.40;;;33.30;30.00;;;;;;6250064;28;20458;-76
2021/06/02 08:58:46;;;;;;;2.53;2.30;;;33.30;30.10;;;;;;6250178;28;20136;-74
2021/06/02 09:01:50;;;;;;;4.78;2.00;;;33.30;29.40;;;;;;6248407;28;20132;-74
2021/06/02 09:04:52;;;;;;;4.43;2.55;;;33.30;28.80;;;;;;6248308;28;20045;-74
2021/06/02 09:07:54;;;;;;;3.45;2.17;;;33.60;29.20;;;;;;6250799;28;20077;-76
2021/06/02 09:11:08;;;;;;;4.53;2.45;;;33.90;29.30;;;;;;6249114;28;20056;-75
2021/06/02 09:14:24;;;;;;;3.78;3.05;;;34.00;29.30;;;;;;6263115;28;20048;-76
2021/06/02 09:17:26;;;;;;;5.15;2.22;;;34.20;28.90;;;;;;6271964;28;20084;-77
2021/06/02 09:20:36;;;;;;;2.33;1.95;;;34.10;28.50;;;;;;6271729;28;20045;-76
2021/06/02 09:23:39;;;;;;;5.13;2.65;;;34.10;28.10;;;;;;6271658;28;20091;-77
2021/06/02 09:26:41;;;;;;;4.75;2.60;;;34.20;27.90;;;;;;6271877;28;20494;-77
2021/06/02 09:29:50;;;;;;;2.80;2.47;;;34.20;27.90;;;;;;6271217;28;20453;-76
2021/06/02 09:32:55;;;;;;;5.43;2.10;;;34.20;28.20;;;;;;6271728;28;20056;-76
2021/06/02 09:36:06;;;;;;;3.20;2.58;;;34.30;28.50;;;;;;6271513;28;20052;-76
2021/06/02 09:39:09;;;;;;;4.60;2.40;;;34.50;28.30;;;;;;6271449;28;20151;-76
2021/06/02 09:42:18;;;;;;;2.72;2.35;;;34.50;27.90;;;;;;6271618;28;20053;-76
2021/06/02 09:45:21;;;;;;;8.80;3.08;;;34.50;27.80;;;;;;6271178;28;20076;-76
2021/06/02 09:48:24;;;;;;;3.08;1.90;;;34.50;28.00;;;;;;6270169;28;20052;-76
2021/06/02 09:51:33;;;;;;;6.00;2.38;;;34.40;28.10;;;;;;6269892;28;20044;-77
2021/06/02 09:54:34;;;;;;;5.13;2.70;;;34.50;28.20;;;;;;6271375;28;20202;-76
2021/06/02 09:57:35;;;;;;;2.75;2.55;;;34.50;27.90;;;;;;6271021;28;20127;-76
2021/06/02 10:00:39;;;;;;;5.43;2.40;;;34.50;28.00;;;;;;6270468;28;20128;-76
2021/06/02 10:03:46;;;;;;;3.38;2.28;;;34.50;28.60;;;;;;6270769;28;20583;-76
2021/06/02 10:06:47;;;;;;;4.38;2.63;;;34.50;27.90;;;;;;6271265;28;20148;-76
2021/06/02 10:09:49;;;;;;;5.07;2.30;;;34.30;28.00;;;;;;6268387;28;20132;-76
2021/06/02 10:12:58;;;;;;;4.53;2.78;;;34.10;28.30;;;;;;6270771;28;20673;-75
2021/06/02 10:16:00;;;;;;;7.78;2.65;;;33.80;28.50;;;;;;6270692;28;20040;-75
2021/06/02 10:19:02;;;;;;;4.40;1.73;;;33.20;28.80;;;;;;6270563;28;20057;-75
2021/06/02 10:22:17;;;;;;;3.42;2.80;;;32.90;29.10;;;;;;6275593;28;20049;-76
2021/06/02 10:25:20;;;;;;;4.47;2.78;;;32.50;29.40;;;;;;6275955;28;20095;-75
2021/06/02 10:28:23;;;;;;;4.13;2.05;;;32.40;29.70;;;;;;6275918;28;20068;-76
2021/06/02 10:31:24;;;;;;;2.38;2.17;;;32.50;29.70;;;;;;6275188;28;20499;-76
2021/06/02 10:34:27;;;;;;;2.95;1.90;;;32.50;29.70;;;;;;6275803;28;20081;-75
2021/06/02 10:37:29;;;;;;;2.83;2.30;;;32.50;29.60;;;;;;6275396;28;20073;-76
2021/06/02 10:40:32;;;;;;;3.65;2.72;;;32.60;29.70;;;;;;6275201;28;20059;-75
2021/06/02 10:43:41;;;;;;;5.18;2.25;;;32.60;29.00;;;;;;6275125;28;20124;-76
2021/06/02 10:46:44;;;;;;;5.10;2.40;;;32.40;29.20;;;;;;6275763;28;20045;-75
2021/06/02 10:49:48;;;;;;;2.78;2.30;;;32.60;29.80;;;;;;6266517;28;20052;-76
2021/06/02 10:52:49;;;;;;;3.40;1.63;;;32.40;29.30;;;;;;6249167;28;20115;-76
2021/06/02 10:55:51;;;;;;;3.97;2.45;;;32.30;29.60;;;;;;6251082;28;20115;-76
2021/06/02 10:58:55;;;;;;;4.05;2.25;;;32.30;29.70;;;;;;6250253;28;20403;-76
2021/06/02 11:02:05;;;;;;;3.47;2.35;;;32.60;29.40;;;;;;6250654;28;20053;-76
2021/06/02 11:05:18;;;;;;;2.97;2.42;;;32.80;29.40;;;;;;6249727;28;20312;-76
2021/06/02 11:08:19;;;;;;;2.47;1.98;;;33.00;29.20;;;;;;6250225;28;20666;-76
2021/06/02 11:11:21;;;;;;;9.65;2.22;;;33.30;29.00;;;;;;6250102;28;20076;-77
2021/06/02 11:14:26;;;;;;;2.75;1.90;;;33.40;28.90;;;;;;6266411;28;20051;-76
2021/06/02 11:17:27;;;;;;;4.00;2.15;;;33.40;28.70;;;;;;6274821;28;20514;-76
2021/06/02 11:20:41;;;;;;;3.58;1.70;;;33.30;28.50;;;;;;6274449;28;20044;-76
2021/06/02 11:23:42;;;;;;;3.30;2.22;;;32.80;28.70;;;;;;6274394;28;20612;-76
2021/06/02 11:26:43;;;;;;;2.28;1.80;;;32.00;30.00;;;;;;6275290;28;20041;-75
2021/06/02 11:30:18;;;;;;;3.35;2.22;;;31.50;29.90;;;;;;6274258;28;20136;-77
2021/06/02 11:33:32;;;;;;;4.22;2.58;;;31.70;30.10;;;;;;6273497;28;20048;-76
2021/06/02 11:36:55;;;;;;;2.60;1.65;;;31.90;29.50;;;;;;6274207;28;20084;-76
2021/06/02 11:39:58;;;;;;;5.15;1.95;;;31.80;29.20;;;;;;6273764;28;20064;-76
2021/06/02 11:43:00;;;;;;;4.50;2.72;;;31.70;29.90;;;;;;6273928;28;20458;-75
2021/06/02 11:46:03;;;;;;;2.30;1.75;;;31.80;29.40;;;;;;6274627;28;20053;-76
2021/06/02 11:49:23;;;;;;;6.13;1.77;;;31.90;28.80;;;;;;6273433;28;20131;-76
2021/06/02 11:52:26;;;;;;;3.65;1.63;;;31.80;29.30;;;;;;6270079;28;20159;-76
2021/06/02 11:55:29;;;;;;;7.63;3.65;;;32.10;29.00;;;;;;6274851;28;20045;-77
2021/06/02 11:58:30;;;;;;;2.83;1.58;;;32.40;29.10;;;;;;6274631;28;20080;-77
2021/06/02 12:01:32;;;;;;;3.53;2.33;;;32.30;28.00;;;;;;6274618;28;20076;-77
2021/06/02 12:04:33;;;;;;;2.67;1.48;;;32.30;28.00;;;;;;6273416;28;20068;-77
2021/06/02 12:07:43;;;;;;;4.20;1.73;;;32.40;28.60;;;;;;6273933;28;20044;-76
2021/06/02 12:10:47;;;;;;;3.05;1.50;;;32.50;28.40;;;;;;6274095;28;20140;-77
2021/06/02 12:13:51;;;;;;;3.38;1.63;;;32.80;28.40;;;;;;6273394;28;20041;-77
2021/06/02 12:17:00;;;;;;;8.73;1.70;;;33.00;28.20;;;;;;6273933;28;20091;-77
2021/06/02 12:20:05;;;;;;;3.20;2.05;;;33.00;28.00;;;;;;6273065;28;20141;-76
2021/06/02 12:23:11;;;;;;;4.10;1.60;;;33.00;27.90;;;;;;6272921;28;20454;-76
2021/06/02 12:26:25;;;;;;;3.90;2.50;;;33.20;26.90;;;;;;6273437;28;20045;-77
2021/06/02 12:29:30;;;;;;;3.30;1.73;;;32.70;26.90;;;;;;6272618;28;20120;-77
2021/06/02 12:32:43;;;;;;;2.08;1.58;;;32.40;27.40;;;;;;6272871;28;20124;-76
2021/06/02 12:35:46;;;;;;;3.22;2.03;;;32.20;27.50;;;;;;6273169;28;20067;-76
2021/06/02 12:38:49;;;;;;;4.32;2.67;;;32.30;27.50;;;;;;6273001;28;20052;-76
2021/06/02 12:41:52;;;;;;;3.25;1.70;;;32.70;27.70;;;;;;6272832;28;20075;-77
2021/06/02 12:44:53;;;;;;;3.83;2.30;;;32.70;26.90;;;;;;6271686;28;20109;-76
2021/06/02 12:47:56;;;;;;;2.58;1.67;;;32.70;27.50;;;;;;6272720;28;20067;-77
2021/06/02 12:50:57;;;;;;;3.55;1.55;;;32.90;27.60;;;;;;6271027;28;20136;-77
2021/06/02 12:54:01;;;;;;;3.55;1.58;;;33.30;27.30;;;;;;6264299;28;20056;-77
2021/06/02 12:57:03;;;;;;;2.58;2.08;;;33.20;26.70;;;;;;6272139;28;20052;-77
2021/06/02 13:00:06;;;;;;;4.32;1.75;;;33.20;26.60;;;;;;6271909;28;20048;-77
2021/06/02 13:03:08;;;;;;;3.28;2.55;;;33.00;27.60;;;;;;6272182;28;20136;-77
2021/06/02 13:06:09;;;;;;;2.50;1.50;;;33.10;26.60;;;;;;6272430;28;20052;-77
2021/06/02 13:09:12;;;;;;;3.17;2.15;;;33.40;27.30;;;;;;6272141;28;20202;-77
2021/06/02 13:12:18;;;;;;;2.67;1.90;;;33.70;27.00;;;;;;6272010;28;20613;-77
2021/06/02 13:15:25;;;;;;;8.97;2.60;;;33.80;27.40;;;;;;6272072;28;20166;-77
2021/06/02 13:18:28;;;;;;;7.43;2.40;;;33.80;27.20;;;;;;6272335;28;20055;-77
2021/06/02 13:21:31;;;;;;;6.32;2.60;;;33.90;27.20;;;;;;6271830;28;20045;-77
2021/06/02 13:24:38;;;;;;;6.00;1.80;;;33.80;27.10;;;;;;6271964;28;20053;-77
2021/06/02 13:27:39;;;;;;;3.78;1.42;;;33.70;27.50;;;;;;6273051;28;20068;-77
2021/06/02 13:30:43;;;;;;;4.88;2.17;;;33.80;27.20;;;;;;6271864;28;20272;-77
2021/06/02 13:33:46;;;;;;;1.83;1.52;;;34.00;27.20;;;;;;6271456;28;20135;-77
2021/06/02 13:36:48;;;;;;;5.18;1.65;;;34.10;27.10;;;;;;6272961;28;20040;-78
2021/06/02 13:40:12;;;;;;;2.92;2.17;;;34.10;26.90;;;;;;6273429;28;20067;-77
2021/06/02 13:43:16;;;;;;;3.85;2.05;;;34.00;27.50;;;;;;6272762;28;20095;-77
2021/06/02 13:46:23;;;;;;;5.85;1.50;;;34.10;27.50;;;;;;6272328;28;20410;-77
2021/06/02 13:49:32;;;;;;;3.10;1.77;;;34.20;27.50;;;;;;6271277;28;20049;-78
2021/06/02 13:52:33;;;;;;;6.70;2.00;;;34.30;27.70;;;;;;6264781;28;20041;-77
2021/06/02 13:55:36;;;;;;;1.77;1.67;;;34.20;27.30;;;;;;6264452;28;20128;-77
2021/06/02 13:58:37;;;;;;;1.70;1.45;;;34.10;27.30;;;;;;6272328;28;20080;-77
2021/06/02 14:01:40;;;;;;;4.65;2.22;;;34.00;27.40;;;;;;6271862;28;20490;-77
2021/06/02 14:04:43;;;;;;;6.05;1.83;;;33.90;27.80;;;;;;6272219;28;20707;-78
2021/06/02 14:07:46;;;;;;;4.78;1.70;;;34.00;27.90;;;;;;6273011;28;20044;-77
2021/06/02 14:10:48;;;;;;;1.30;1.20;;;34.20;27.90;;;;;;6272505;28;20088;-77
2021/06/02 14:13:50;;;;;;;2.17;1.73;;;34.30;27.80;;;;;;6272739;28;20129;-77
2021/06/02 14:16:52;;;;;;;2.35;2.10;;;34.30;27.50;;;;;;6273194;28;20120;-77
2021/06/02 14:19:54;;;;;;;2.92;2.22;;;34.40;27.60;;;;;;6271337;28;20130;-76
2021/06/02 14:22:55;;;;;;;4.40;1.42;;;34.40;27.40;;;;;;6270813;28;20388;-76
2021/06/02 14:25:57;;;;;;;1.52;1.38;;;34.50;27.30;;;;;;6270720;28;20132;-76
2021/06/02 14:28:59;;;;;;;2.83;1.73;;;34.60;27.60;;;;;;6270454;28;20534;-77
2021/06/02 14:32:00;;;;;;;2.80;1.75;;;34.60;27.50;;;;;;6270389;28;20127;-77
2021/06/02 14:35:02;;;;;;;3.58;1.67;;;34.50;27.90;;;;;;6270432;28;20136;-76
2021/06/02 14:38:04;;;;;;;2.33;1.88;;;34.40;27.60;;;;;;6270659;28;20513;-76
2021/06/02 14:41:08;;;;;;;1.45;1.27;;;34.30;27.50;;;;;;6270456;28;20075;-76
2021/06/02 14:44:09;;;;;;;3.75;1.60;;;34.30;27.40;;;;;;6270287;28;20053;-76
2021/06/02 14:47:11;;;;;;;3.78;2.08;;;34.00;27.60;;;;;;6270712;28;20049;-76
2021/06/02 14:50:12;;;;;;;1.95;1.70;;;34.00;27.60;;;;;;6270456;28;20080;-77
2021/06/02 14:53:14;;;;;;;6.28;1.50;;;34.10;27.70;;;;;;6266966;28;20423;-77
2021/06/02 14:56:16;;;;;;;2.42;1.42;;;34.10;27.40;;;;;;6244451;28;20091;-76
2021/06/02 14:59:18;;;;;;;3.30;2.03;;;34.10;28.00;;;;;;6245477;28;20060;-76
2021/06/02 15:02:19;;;;;;;2.38;1.52;;;34.10;27.40;;;;;;6245945;28;20049;-76
2021/06/02 15:05:21;;;;;;;5.43;1.95;;;34.10;27.70;;;;;;6245036;28;20041;-76
2021/06/02 15:08:23;;;;;;;1.40;1.30;;;34.20;27.50;;;;;;6248166;28;20132;-76
2021/06/02 15:11:26;;;;;;;2.35;1.20;;;34.30;27.40;;;;;;6249713;28;20046;-76
2021/06/02 15:14:28;;;;;;;6.10;1.48;;;34.00;27.60;;;;;;6266818;28;20056;-76
2021/06/02 15:17:29;;;;;;;6.05;1.80;;;33.60;27.40;;;;;;6274795;28;20059;-76
2021/06/02 15:20:30;;;;;;;3.83;1.98;;;33.50;27.60;;;;;;6274436;28;20087;-76
2021/06/02 15:23:32;;;;;;;2.47;1.15;;;33.60;27.40;;;;;;6274827;28;20123;-76
2021/06/02 15:26:39;;;;;;;2.08;1.50;;;33.70;26.60;;;;;;6275479;28;20081;-76
2021/06/02 15:29:43;;;;;;;;;;;33.60;27.40;;;;;;6274632;28;20051;-76
2021/06/02 15:32:44;;;;;;;4.88;2.17;;;33.20;27.70;;;;;;6274399;28;20343;-75
2021/06/02 15:35:45;;;;;;;2.95;1.42;;;32.90;27.90;;;;;;6274476;28;20148;-76
2021/06/02 15:38:47;;;;;;;3.97;1.30;;;32.60;27.90;;;;;;6274512;28;20139;-77
2021/06/02 15:41:52;;;;;;;2.17;1.55;;;32.40;27.80;;;;;;6274387;28;20087;-76
2021/06/02 15:44:53;;;;;;;2.75;1.92;;;32.20;28.70;;;;;;6273600;28;20049;-76
2021/06/02 15:47:56;;;;;;;7.82;1.70;;;32.30;27.80;;;;;;6274131;28;20124;-76
2021/06/02 15:50:58;;;;;;;2.95;1.63;;;32.30;28.70;;;;;;6274308;28;20479;-77
2021/06/02 15:54:01;;;;;;;4.35;1.80;;;32.10;28.70;;;;;;6275720;28;20110;-77
2021/06/02 15:57:06;;;;;;;3.00;2.03;;;31.70;29.40;;;;;;6272141;28;20049;-76
2021/06/02 16:00:10;;;;;;;2.28;1.75;;;31.20;30.10;;;;;;6273434;28;20073;-76
2021/06/02 16:03:12;;;;;;;1.73;1.63;;;30.80;30.40;;;;;;6273062;28;20132;-76
2021/06/02 16:06:14;;;;;;;2.70;1.60;;;30.40;31.20;;;;;;6273896;28;20045;-76
2021/06/02 16:09:15;;;;;;;4.00;1.80;;;30.20;31.00;;;;;;6273085;28;20072;-77
2021/06/02 16:12:18;;;;;;;2.60;1.70;;;29.90;32.60;;;;;;6273438;28;20460;-77
2021/06/02 16:15:20;;;;;;;3.38;2.25;;;29.80;32.70;;;;;;6273043;28;20045;-76
2021/06/02 16:18:21;;;;;;;4.50;2.63;;;29.50;32.40;;;;;;6273489;28;20131;-76
2021/06/02 16:21:23;;;;;;;2.92;1.83;;;29.40;32.50;;;;;;6272912;28;20041;-76